Time;durP1;ratioP1;P1;durP2;ratioP2;P2;SDS_P1;SDS_P2;PMS_P1;PMS_P2;Temp;Humidity;BMP_temperature;BMP_pressure;BME280_temperature;BME280_humidity;BME280_pressure;Samples;Min_cycle;Max_cycle;Signal;HPM_P1;HPM_P2
2022/08/25 00:01:19;;;;;;;21.02;8.20;;;;;;;25.60;100.00;100717.97;4921404;29;20042;-73
2022/08/25 00:04:09;;;;;;;22.67;8.30;;;;;;;25.65;100.00;100722.00;4908831;29;20362;-73
2022/08/25 00:06:55;;;;;;;17.23;8.25;;;;;;;25.50;100.00;100730.38;4922383;29;20059;-72
2022/08/25 00:09:41;;;;;;;19.23;8.48;;;;;;;25.30;100.00;100737.31;4922383;29;20115;-73
2022/08/25 00:12:27;;;;;;;16.92;8.30;;;;;;;25.53;100.00;100739.06;4922023;29;20032;-73
2022/08/25 00:15:13;;;;;;;19.88;8.68;;;;;;;25.51;100.00;100734.81;4922112;29;20032;-73
2022/08/25 00:17:59;;;;;;;22.80;9.30;;;;;;;25.23;100.00;100740.56;4921095;29;20032;-73
2022/08/25 00:20:46;;;;;;;23.95;8.57;;;;;;;25.14;100.00;100734.09;4922473;29;20032;-73
2022/08/25 00:23:33;;;;;;;22.38;8.43;;;;;;;25.16;100.00;100729.44;4921826;29;20028;-72
2022/08/25 00:26:20;;;;;;;17.92;8.57;;;;;;;24.94;100.00;100729.41;4920645;29;20020;-73
2022/08/25 00:29:06;;;;;;;16.00;8.48;;;;;;;24.76;100.00;100729.94;4920734;29;20457;-73
2022/08/25 00:31:53;;;;;;;16.60;8.10;;;;;;;24.75;100.00;100731.75;4920449;29;20477;-73
2022/08/25 00:34:39;;;;;;;23.35;8.65;;;;;;;24.84;100.00;100724.84;4921814;29;20123;-72
2022/08/25 00:37:25;;;;;;;20.45;8.38;;;;;;;24.84;100.00;100719.50;4922226;29;20422;-72
2022/08/25 00:40:11;;;;;;;18.30;8.02;;;;;;;24.77;100.00;100716.44;4921528;29;20028;-72
2022/08/25 00:42:57;;;;;;;17.58;8.82;;;;;;;24.74;100.00;100711.28;4921535;29;20028;-73
2022/08/25 00:45:43;;;;;;;22.05;8.73;;;;;;;24.89;100.00;100706.59;4920897;29;20038;-72
2022/08/25 00:48:29;;;;;;;15.02;8.05;;;;;;;24.93;100.00;100705.38;4921077;29;20024;-72
2022/08/25 00:51:24;;;;;;;23.23;8.30;;;;;;;25.11;100.00;100695.94;4921235;29;20028;-71
2022/08/25 00:54:21;;;;;;;17.35;8.10;;;;;;;24.78;100.00;100702.06;4921265;29;20028;-73
2022/08/25 00:57:09;;;;;;;26.13;8.23;;;;;;;25.11;100.00;100694.09;4921789;29;20445;-73
2022/08/25 00:59:56;;;;;;;20.98;8.82;;;;;;;25.16;100.00;100688.38;4921138;29;20122;-72
2022/08/25 01:02:42;;;;;;;18.58;7.90;;;;;;;24.90;100.00;100698.44;4921310;29;20028;-73
2022/08/25 01:05:29;;;;;;;14.00;7.75;;;;;;;25.14;100.00;100699.22;4906705;29;20465;-72
2022/08/25 01:08:20;;;;;;;18.33;8.13;;;;;;;25.02;100.00;100691.25;4921360;29;20410;-73
2022/08/25 01:11:09;;;;;;;25.38;8.52;;;;;;;25.12;100.00;100689.59;4919525;29;20024;-72
2022/08/25 01:13:56;;;;;;;18.08;8.20;;;;;;;25.23;100.00;100687.78;4920544;29;20107;-73
2022/08/25 01:16:42;;;;;;;23.05;8.45;;;;;;;24.94;100.00;100688.31;4921152;29;20051;-73
2022/08/25 01:19:30;;;;;;;17.38;8.02;;;;;;;25.05;100.00;100681.19;4920714;29;20032;-72
2022/08/25 01:22:16;;;;;;;20.17;8.27;;;;;;;25.25;100.00;100671.56;4907512;29;20042;-72
2022/08/25 01:25:12;;;;;;;17.52;8.63;;;;;;;25.18;100.00;100675.69;4920356;29;20464;-72
2022/08/25 01:27:59;;;;;;;19.33;8.38;;;;;;;24.89;100.00;100674.44;4906321;29;20039;-72
2022/08/25 01:30:45;;;;;;;17.67;8.82;;;;;;;24.98;100.00;100668.34;4921035;29;20086;-72
2022/08/25 01:33:31;;;;;;;17.23;8.23;;;;;;;25.09;100.00;100673.72;4907145;29;20036;-73
2022/08/25 01:36:18;;;;;;;19.40;8.57;;;;;;;24.90;100.00;100676.13;4906056;29;20054;-72
2022/08/25 01:39:05;;;;;;;17.98;8.45;;;;;;;24.99;100.00;100670.91;4919437;29;20119;-72
2022/08/25 01:42:05;;;;;;;17.98;8.40;;;;;;;25.01;100.00;100681.53;4920856;29;20366;-72
2022/08/25 01:44:51;;;;;;;19.73;8.50;;;;;;;24.68;100.00;100684.97;4918460;29;20028;-72
2022/08/25 01:47:37;;;;;;;21.40;8.70;;;;;;;24.77;100.00;100678.91;4906259;29;20355;-73
2022/08/25 01:50:23;;;;;;;16.55;9.02;;;;;;;25.05;100.00;100683.00;4907533;29;20043;-72
2022/08/25 01:53:21;;;;;;;16.33;8.15;;;;;;;24.85;100.00;100689.91;4919201;29;20042;-72
2022/08/25 01:56:10;;;;;;;20.92;9.13;;;;;;;24.85;100.00;100679.19;4920308;29;20058;-72
2022/08/25 01:58:56;;;;;;;18.48;8.80;;;;;;;24.62;100.00;100681.88;4918489;29;20458;-72
2022/08/25 02:01:42;;;;;;;22.48;8.77;;;;;;;24.40;100.00;100685.31;4918462;29;20032;-73
2022/08/25 02:04:30;;;;;;;22.60;8.45;;;;;;;24.78;100.00;100683.28;4905045;29;20365;-73
2022/08/25 02:07:17;;;;;;;21.15;8.93;;;;;;;24.48;100.00;100677.56;4920413;29;20024;-73
2022/08/25 02:10:04;;;;;;;22.63;9.52;;;;;;;24.81;100.00;100668.78;4906574;29;20374;-74
2022/08/25 02:12:50;;;;;;;21.70;9.57;;;;;;;24.53;100.00;100672.69;4920217;29;20060;-72
2022/08/25 02:15:41;;;;;;;21.23;8.40;;;;;;;24.39;100.00;100669.34;4906271;29;20036;-72
2022/08/25 02:18:28;;;;;;;26.15;8.98;;;;;;;24.55;100.00;100669.91;4919912;29;20043;-72
2022/08/25 02:21:14;;;;;;;19.75;9.10;;;;;;;24.79;100.00;100665.41;4919252;29;20028;-73
2022/08/25 02:24:00;;;;;;;26.33;9.70;;;;;;;24.19;100.00;100664.63;4919158;29;20070;-73
2022/08/25 02:26:46;;;;;;;23.08;9.70;;;;;;;24.20;100.00;100663.66;4920300;29;20024;-72
2022/08/25 02:29:32;;;;;;;23.60;9.88;;;;;;;24.36;100.00;100661.53;4919580;29;20020;-73
2022/08/25 02:32:18;;;;;;;17.30;10.43;;;;;;;24.24;100.00;100665.13;4905269;29;20043;-73
2022/08/25 02:35:05;;;;;;;19.20;9.43;;;;;;;24.38;100.00;100663.13;4918929;29;20028;-73
2022/08/25 02:37:52;;;;;;;23.20;9.27;;;;;;;24.08;100.00;100665.44;4919249;29;20107;-73
2022/08/25 02:40:37;;;;;;;26.42;10.43;;;;;;;24.24;100.00;100665.13;4918589;29;20106;-74
2022/08/25 02:43:25;;;;;;;29.95;10.23;;;;;;;24.18;100.00;100665.63;4919575;29;20047;-71
2022/08/25 02:46:11;;;;;;;22.17;10.10;;;;;;;24.03;100.00;100662.22;4918736;29;20027;-73
2022/08/25 02:48:58;;;;;;;18.33;8.88;;;;;;;24.22;100.00;100667.09;4919300;29;20417;-73
2022/08/25 02:51:43;;;;;;;18.83;9.00;;;;;;;24.22;100.00;100664.41;4919719;29;20122;-73
2022/08/25 02:54:29;;;;;;;24.70;9.27;;;;;;;24.42;100.00;100658.38;4918636;29;20047;-72
2022/08/25 02:57:15;;;;;;;24.90;9.00;;;;;;;24.33;100.00;100668.00;4919316;29;20135;-72
2022/08/25 03:00:01;;;;;;;16.50;8.50;;;;;;;24.42;100.00;100669.97;4905168;29;20114;-73
2022/08/25 03:02:47;;;;;;;20.27;9.18;;;;;;;24.47;100.00;100661.59;4917767;29;20376;-74
2022/08/25 03:05:33;;;;;;;22.95;9.70;;;;;;;24.18;100.00;100665.63;4918536;29;20051;-73
2022/08/25 03:08:19;;;;;;;24.73;9.20;;;;;;;24.34;100.00;100663.50;4919159;29;20020;-73
2022/08/25 03:11:05;;;;;;;21.83;9.00;;;;;;;24.30;100.00;100662.03;4918170;29;20095;-73
2022/08/25 03:13:51;;;;;;;16.13;8.35;;;;;;;24.15;100.00;100665.84;4919053;29;20020;-72
2022/08/25 03:16:37;;;;;;;22.70;8.18;;;;;;;24.39;100.00;100664.00;4917554;29;20409;-73
2022/08/25 03:19:23;;;;;;;26.38;8.15;;;;;;;24.24;100.00;100676.72;4919468;29;20365;-73
2022/08/25 03:22:09;;;;;;;30.75;8.32;;;;;;;24.15;100.00;100677.38;4918870;29;20085;-73
2022/08/25 03:26:52;;;;;;;29.30;8.18;;;;;;;24.37;100.00;100680.19;4904147;29;20370;-74
2022/08/25 03:28:01;;;;;;;22.75;7.70;;;;;;;24.20;100.00;100674.38;4917890;29;20111;-72
2022/08/25 03:30:47;;;;;;;28.60;7.53;;;;;;;24.08;100.00;100678.81;4919330;29;20115;-72
2022/08/25 03:33:34;;;;;;;23.40;7.07;;;;;;;24.23;100.00;100679.50;4922657;29;20420;-71
2022/08/25 03:36:20;;;;;;;26.05;7.72;;;;;;;23.99;100.00;100684.81;4924151;29;20039;-72
2022/08/25 03:39:07;;;;;;;24.88;8.15;;;;;;;23.99;100.00;100684.81;4922402;29;20043;-72
2022/08/25 03:41:53;;;;;;;29.20;7.43;;;;;;;24.00;100.00;100696.41;4924479;29;20032;-73
2022/08/25 03:44:39;;;;;;;28.02;7.07;;;;;;;23.75;100.00;100689.25;4924673;29;20038;-73
2022/08/25 03:47:25;;;;;;;24.23;7.32;;;;;;;23.69;100.00;100680.81;4923107;29;20020;-73
2022/08/25 03:50:11;;;;;;;23.20;7.50;;;;;;;24.05;100.00;100691.56;4923356;29;20068;-73
2022/08/25 03:52:58;;;;;;;29.83;7.50;;;;;;;24.08;100.00;100689.53;4923589;29;20047;-72
2022/08/25 03:55:43;;;;;;;27.52;7.32;;;;;;;23.74;100.00;100692.06;4922701;29;20039;-73
2022/08/25 03:58:29;;;;;;;22.05;7.60;;;;;;;23.89;100.00;100691.78;4897017;29;20413;-72
2022/08/25 04:01:15;;;;;;;27.98;8.40;;;;;;;23.42;100.00;100697.88;4925217;29;20039;-73
2022/08/25 04:04:01;;;;;;;37.70;9.18;;;;;;;23.30;100.00;100701.41;4922157;29;20476;-73
2022/08/25 04:06:47;;;;;;;22.73;8.60;;;;;;;23.65;100.00;100698.03;4909512;29;20425;-73
2022/08/25 04:09:33;;;;;;;22.35;9.20;;;;;;;23.28;100.00;100700.63;4923896;29;20028;-73
2022/08/25 04:12:19;;;;;;;22.40;9.23;;;;;;;23.80;100.00;100695.16;4921014;29;20032;-72
2022/08/25 04:15:06;;;;;;;26.85;9.63;;;;;;;23.92;100.00;100693.41;4921966;29;20032;-73
2022/08/25 04:17:52;;;;;;;23.52;8.48;;;;;;;24.01;100.00;100696.28;4921978;29;20032;-73
2022/08/25 04:20:41;;;;;;;23.70;8.20;;;;;;;24.12;100.00;100699.03;4927512;29;20030;-73
2022/08/25 04:23:26;;;;;;;21.60;8.50;;;;;;;23.80;100.00;100699.63;4917404;29;20059;-72
2022/08/25 04:26:19;;;;;;;33.63;8.45;;;;;;;24.22;100.00;100700.06;4930919;29;20056;-72
2022/08/25 04:29:08;;;;;;;32.38;9.27;;;;;;;24.01;100.00;100709.66;4929053;29;20035;-73
2022/08/25 04:31:55;;;;;;;25.48;8.77;;;;;;;24.29;100.00;100711.16;4927230;29;20051;-73
2022/08/25 04:34:42;;;;;;;27.60;8.50;;;;;;;24.19;100.00;100711.00;4930838;29;20088;-73
2022/08/25 04:37:27;;;;;;;24.73;8.57;;;;;;;24.54;100.00;100711.91;4926249;29;20128;-73
2022/08/25 04:40:13;;;;;;;29.35;8.30;;;;;;;24.20;100.00;100709.19;4926103;29;20123;-72
2022/08/25 04:42:59;;;;;;;28.73;8.60;;;;;;;24.68;100.00;100710.91;4928202;29;20028;-72
2022/08/25 04:45:45;;;;;;;28.67;8.90;;;;;;;24.54;100.00;100708.38;4929125;29;20051;-71
2022/08/25 04:48:31;;;;;;;21.33;7.63;;;;;;;24.61;100.00;100713.19;4930169;29;20039;-71
2022/08/25 04:51:22;;;;;;;20.23;8.25;;;;;;;24.71;100.00;100716.03;4924919;29;20516;-71
2022/08/25 04:54:11;;;;;;;56.95;35.95;;;;;;;24.81;100.00;100720.59;4925349;29;20032;-73
2022/08/25 04:56:57;;;;;;;30.67;10.52;;;;;;;24.88;100.00;100718.28;4924510;29;20039;-72
2022/08/25 04:59:42;;;;;;;30.00;9.35;;;;;;;24.80;100.00;100720.69;4921919;29;20354;-73
2022/08/25 05:02:28;;;;;;;29.60;9.68;;;;;;;24.79;100.00;100708.28;4921032;29;20425;-72
2022/08/25 05:05:15;;;;;;;21.50;9.35;;;;;;;25.12;100.00;100708.38;4921090;29;20127;-72
2022/08/25 05:08:00;;;;;;;34.20;10.93;;;;;;;24.83;100.00;100702.53;4921071;29;20032;-72
2022/08/25 05:10:46;;;;;;;31.75;9.90;;;;;;;24.77;100.00;100708.41;4920829;29;20036;-74
2022/08/25 05:13:34;;;;;;;38.65;13.25;;;;;;;24.73;100.00;100703.38;4920931;29;20032;-73
2022/08/25 05:16:22;;;;;;;28.90;8.40;;;;;;;24.60;100.00;100705.25;4920478;29;20029;-72
2022/08/25 05:19:08;;;;;;;28.25;8.82;;;;;;;24.79;100.00;100710.97;4921225;29;20060;-72
2022/08/25 05:21:54;;;;;;;30.05;8.30;;;;;;;24.86;100.00;100710.38;4921208;29;20063;-72
2022/08/25 05:24:40;;;;;;;23.70;7.72;;;;;;;25.13;100.00;100718.97;4921014;29;20020;-73
2022/08/25 05:27:25;;;;;;;22.52;6.10;;;;;;;24.99;100.00;100715.66;4920709;29;20020;-72
2022/08/25 05:30:11;;;;;;;28.05;8.38;;;;;;;25.29;100.00;100718.66;4920297;29;20055;-73
2022/08/25 05:32:57;;;;;;;34.78;6.85;;;;;;;25.25;100.00;100725.22;4920777;29;20099;-73
2022/08/25 05:35:43;;;;;;;24.38;5.90;;;;;;;25.27;100.00;100721.44;4920222;29;20032;-73
2022/08/25 05:38:29;;;;;;;32.70;7.03;;;;;;;25.47;100.00;100722.59;4920995;29;20060;-72
2022/08/25 05:41:19;;;;;;;24.50;6.47;;;;;;;25.47;100.00;100719.91;4919776;29;20532;-72
2022/08/25 05:44:05;;;;;;;22.88;6.43;;;;;;;25.44;100.00;100720.16;4918951;29;20478;-72
2022/08/25 05:46:51;;;;;;;27.48;6.68;;;;;;;25.55;100.00;100712.94;4920449;29;20032;-73
2022/08/25 05:49:37;;;;;;;28.48;7.00;;;;;;;25.59;100.00;100722.47;4920022;29;20334;-72
2022/08/25 05:52:22;;;;;;;29.55;6.75;;;;;;;25.71;100.00;100720.63;4905310;29;20028;-72
2022/08/25 05:55:09;;;;;;;26.55;6.00;;;;;;;25.74;100.00;100715.88;4919544;29;20449;-72
2022/08/25 05:57:55;;;;;;;37.20;7.07;;;;;;;26.08;100.00;100724.81;4919438;29;20047;-73
2022/08/25 06:00:41;;;;;;;29.58;6.18;;;;;;;26.16;100.00;100717.81;4920237;29;20032;-72
2022/08/25 06:03:26;;;;;;;32.30;6.43;;;;;;;25.79;100.00;100721.72;4920407;29;20032;-73
2022/08/25 06:06:14;;;;;;;33.17;6.47;;;;;;;25.99;100.00;100722.84;4918666;29;20047;-72
2022/08/25 06:09:01;;;;;;;25.45;6.45;;;;;;;26.27;100.00;100719.59;4924506;29;20020;-71
2022/08/25 06:11:47;;;;;;;28.70;5.57;;;;;;;26.18;100.00;100720.38;4928939;29;20357;-71
2022/08/25 06:14:33;;;;;;;32.50;5.82;;;;;;;26.14;100.00;100717.09;4912957;29;20032;-72
2022/08/25 06:17:19;;;;;;;24.00;5.40;;;;;;;26.43;100.00;100715.53;4926758;29;20345;-72
2022/08/25 06:20:30;;;;;;;30.42;5.45;;;;;;;26.65;97.04;100711.97;4928103;29;20039;-73
2022/08/25 06:23:17;;;;;;;24.85;5.03;;;;;;;26.74;99.30;100721.94;4914594;29;20031;-71
2022/08/25 06:26:03;;;;;;;25.50;5.95;;;;;;;26.94;95.97;100715.72;4925893;29;20490;-72
2022/08/25 06:28:51;;;;;;;35.45;6.45;;;;;;;27.23;95.64;100723.03;4926956;29;20042;-72
2022/08/25 06:31:37;;;;;;;27.48;6.70;;;;;;;27.29;95.63;100713.59;4927886;29;20062;-71
2022/08/25 06:34:22;;;;;;;28.65;6.43;;;;;;;27.12;93.98;100708.75;4927183;29;20024;-72
2022/08/25 06:37:08;;;;;;;27.98;5.70;;;;;;;27.05;89.88;100711.13;4914431;29;20035;-71
2022/08/25 06:39:54;;;;;;;24.08;6.03;;;;;;;27.29;93.29;100722.50;4927448;29;20063;-71
2022/08/25 06:42:40;;;;;;;22.20;5.78;;;;;;;27.00;90.45;100713.34;4927697;29;20050;-70
2022/08/25 06:45:26;;;;;;;25.30;6.15;;;;;;;27.02;94.34;100703.34;4913576;29;20028;-71
2022/08/25 06:48:11;;;;;;;22.25;5.32;;;;;;;27.12;96.71;100708.75;4927435;29;20544;-70
2022/08/25 06:50:57;;;;;;;24.48;6.13;;;;;;;27.46;94.07;100707.59;4927739;29;20035;-72
2022/08/25 06:53:47;;;;;;;28.48;5.60;;;;;;;26.81;95.73;100712.38;4927701;29;20472;-70
2022/08/25 06:56:33;;;;;;;26.83;5.78;;;;;;;26.98;96.49;100715.34;4913305;29;20054;-71
2022/08/25 06:59:19;;;;;;;23.42;5.50;;;;;;;27.58;91.43;100706.50;4925418;29;20020;-71
2022/08/25 07:02:06;;;;;;;25.10;5.13;;;;;;;27.32;91.14;100716.00;4927208;29;20058;-71
2022/08/25 07:04:52;;;;;;;24.35;5.45;;;;;;;27.23;93.58;100716.78;4912109;29;20048;-71
2022/08/25 07:07:38;;;;;;;19.98;5.03;;;;;;;27.30;91.97;100713.47;4926441;29;20039;-71
2022/08/25 07:10:24;;;;;;;29.58;5.97;;;;;;;27.08;93.11;100715.38;4925674;29;20033;-71
2022/08/25 07:13:10;;;;;;;31.27;5.60;;;;;;;27.65;90.71;100702.28;4926844;29;20115;-71
2022/08/25 07:15:56;;;;;;;34.85;5.78;;;;;;;27.76;84.76;100704.03;4923927;29;20044;-71
2022/08/25 07:18:43;;;;;;;29.77;6.00;;;;;;;27.78;89.67;100699.34;4912733;29;20394;-70
2022/08/25 07:21:31;;;;;;;21.52;5.50;;;;;;;27.97;87.99;100711.09;4925690;29;20067;-71
2022/08/25 07:24:17;;;;;;;25.23;5.95;;;;;;;28.46;86.41;100704.81;4924512;29;20445;-71
2022/08/25 07:27:04;;;;;;;28.50;5.80;;;;;;;27.98;82.09;100704.72;4926241;29;20502;-73
2022/08/25 07:29:49;;;;;;;24.83;5.85;;;;;;;27.80;85.71;100711.69;4913059;29;20027;-72
2022/08/25 07:32:35;;;;;;;31.70;5.80;;;;;;;27.90;86.64;100709.06;4926130;29;20039;-72
2022/08/25 07:35:24;;;;;;;18.90;5.47;;;;;;;28.35;85.31;100711.16;4912173;29;20086;-71
2022/08/25 07:38:09;;;;;;;18.90;5.03;;;;;;;28.55;80.10;100707.53;4925729;29;20187;-70
2022/08/25 07:41:02;;;;;;;18.13;5.15;;;;;;;28.92;77.76;100710.34;4925164;29;20120;-71
2022/08/25 07:43:48;;;;;;;27.40;5.80;;;;;;;29.06;75.25;100708.13;4925152;29;20047;-70
2022/08/25 07:46:34;;;;;;;25.70;5.28;;;;;;;29.05;77.66;100695.59;4925589;29;20861;-70
2022/08/25 07:49:22;;;;;;;26.58;5.70;;;;;;;28.88;78.03;100699.00;4926194;29;20027;-70
2022/08/25 07:52:08;;;;;;;18.23;4.97;;;;;;;29.19;77.17;100700.56;4926016;29;20432;-75
2022/08/25 07:54:54;;;;;;;28.13;5.28;;;;;;;29.32;72.15;100697.53;4924927;29;20036;-71
2022/08/25 07:57:40;;;;;;;25.95;5.63;;;;;;;29.47;73.02;100707.72;4925468;29;20352;-71
2022/08/25 08:00:28;;;;;;;19.55;4.45;;;;;;;29.08;74.36;100700.72;4925913;29;20479;-71
2022/08/25 08:03:14;;;;;;;20.83;4.93;;;;;;;29.56;72.79;100696.03;4926471;29;20040;-70
2022/08/25 08:06:05;;;;;;;20.50;5.47;;;;;;;29.54;72.98;100695.31;4870212;29;1158845;-70
2022/08/25 08:08:53;;;;;;;26.40;5.22;;;;;;;29.73;74.45;100697.13;4908793;29;20042;-69
2022/08/25 08:11:43;;;;;;;21.88;5.20;;;;;;;30.50;70.22;100693.00;4909380;29;20048;-71
2022/08/25 08:14:29;;;;;;;23.83;5.32;;;;;;;30.54;66.10;100691.69;4909875;29;20028;-71
2022/08/25 08:17:15;;;;;;;30.30;5.45;;;;;;;30.58;64.42;100696.59;4895856;29;20465;-70
2022/08/25 08:20:03;;;;;;;22.70;5.55;;;;;;;30.61;67.38;100698.16;4910270;29;20107;-70
2022/08/25 08:22:49;;;;;;;27.25;9.15;;;;;;;30.69;62.53;100696.41;4912027;29;20147;-70
2022/08/25 08:25:35;;;;;;;18.70;4.72;;;;;;;30.82;60.69;100693.31;4909916;29;20171;-71
2022/08/25 08:28:21;;;;;;;27.83;5.72;;;;;;;30.70;64.04;100690.00;4912851;29;20043;-71
2022/08/25 08:31:07;;;;;;;14.25;4.72;;;;;;;31.30;63.64;100682.88;4911654;29;20429;-71
2022/08/25 08:33:54;;;;;;;17.63;7.57;;;;;;;30.89;60.07;100687.13;4908856;29;20039;-71
2022/08/25 08:36:40;;;;;;;23.25;5.32;;;;;;;31.09;57.98;100688.63;4930235;29;20035;-70
2022/08/25 08:39:27;;;;;;;19.15;5.78;;;;;;;31.26;58.75;100676.09;4930072;29;20038;-70
2022/08/25 08:42:18;;;;;;;18.23;6.13;;;;;;;31.65;57.92;100676.47;4914553;29;20140;-70
2022/08/25 08:45:10;;;;;;;19.55;5.03;;;;;;;31.82;57.29;100689.13;4914108;29;20063;-70
2022/08/25 08:48:08;;;;;;;17.23;4.97;;;;;;;32.10;54.84;100679.72;4914626;29;20051;-70
2022/08/25 08:51:18;;;;;;;23.83;7.00;;;;;;;32.59;56.44;100678.81;4915761;29;20127;-70
2022/08/25 08:54:03;;;;;;;18.60;4.57;;;;;;;32.58;52.82;100669.81;4912287;29;20078;-70
2022/08/25 08:57:01;;;;;;;17.75;4.93;;;;;;;31.69;51.32;100672.44;4914858;29;20063;-71
2022/08/25 09:00:00;;;;;;;18.55;5.20;;;;;;;32.17;53.48;100668.03;4914281;29;20469;-70
2022/08/25 09:03:01;;;;;;;16.77;4.80;;;;;;;32.10;52.01;100658.03;4913720;29;20043;-70
2022/08/25 09:05:51;;;;;;;18.08;4.80;;;;;;;32.38;50.69;100668.44;4923995;29;20225;-70
2022/08/25 09:08:42;;;;;;;21.40;4.72;;;;;;;32.04;49.67;100664.09;4928943;29;20047;-71
2022/08/25 09:11:54;;;;;;;17.38;6.40;;;;;;;32.15;52.02;100664.66;4930498;29;20083;-70
2022/08/25 09:15:11;;;;;;;16.35;6.95;;;;;;;32.35;47.15;100660.66;4927163;29;20027;-70
2022/08/25 09:18:35;;;;;;;17.83;9.80;;;;;;;32.29;50.35;100660.44;4927455;29;20342;-70
2022/08/25 09:21:27;;;;;;;18.88;4.80;;;;;;;32.69;48.35;100657.78;4898208;29;20449;-71
2022/08/25 09:24:32;;;;;;;17.77;4.95;;;;;;;32.86;47.02;100649.50;4926250;29;20103;-70
2022/08/25 09:27:32;;;;;;;21.65;4.75;;;;;;;32.77;47.77;100636.94;4894402;29;20448;-71
2022/08/25 09:30:20;;;;;;;19.48;4.63;;;;;;;32.47;46.28;100648.47;4929558;29;20134;-70
2022/08/25 09:33:07;;;;;;;16.45;4.75;;;;;;;32.16;46.26;100638.38;4928778;29;20066;-71
2022/08/25 09:35:55;;;;;;;22.83;4.88;;;;;;;32.34;46.95;100631.81;4926397;29;20083;-72
2022/08/25 09:38:41;;;;;;;18.33;4.88;;;;;;;32.73;45.35;100626.56;4928817;29;20401;-71
2022/08/25 09:41:39;;;;;;;15.30;4.55;;;;;;;32.73;44.60;100627.44;4928194;29;20032;-71
2022/08/25 09:44:34;;;;;;;15.80;4.78;;;;;;;32.75;44.96;100627.28;4927915;29;20032;-70
2022/08/25 09:47:26;;;;;;;12.65;4.20;;;;;;;32.67;45.13;100625.41;4928483;29;20046;-71
2022/08/25 09:50:18;;;;;;;17.50;4.75;;;;;;;32.41;44.55;100616.56;4928777;29;20539;-71
2022/08/25 09:53:16;;;;;;;14.50;4.47;;;;;;;32.62;44.40;100614.19;4915066;29;20039;-72
2022/08/25 09:56:05;;;;;;;16.13;5.20;;;;;;;33.12;43.65;100605.84;4927532;29;20110;-74
2022/08/25 09:58:51;;;;;;;16.35;4.93;;;;;;;32.96;44.67;100611.31;4928687;29;20552;-71
2022/08/25 10:01:50;;;;;;;14.98;5.20;;;;;;;32.72;44.02;100611.31;4927342;29;20549;-70
2022/08/25 10:04:38;;;;;;;16.27;4.78;;;;;;;31.50;44.48;100613.06;4926108;29;20599;-70
2022/08/25 10:07:33;;;;;;;15.38;5.13;;;;;;;31.55;44.05;100605.28;4926450;29;20465;-70
2022/08/25 10:10:43;;;;;;;21.55;4.53;;;;;;;31.91;44.31;100610.38;4928248;29;20050;-70
2022/08/25 10:13:50;;;;;;;14.43;4.88;;;;;;;32.08;43.18;100600.41;4927062;29;20097;-71
2022/08/25 10:16:36;;;;;;;12.88;5.40;;;;;;;32.37;43.08;100592.66;4927622;29;20042;-70
2022/08/25 10:19:27;;;;;;;16.48;5.68;;;;;;;32.77;44.19;100587.22;4928122;29;20066;-70
2022/08/25 10:22:31;;;;;;;21.20;5.03;;;;;;;32.74;42.83;100588.41;4928471;29;20043;-70
2022/08/25 10:25:25;;;;;;;20.73;4.70;;;;;;;32.94;42.86;100580.81;4927420;29;20039;-71
2022/08/25 10:28:14;;;;;;;21.35;4.88;;;;;;;32.94;42.07;100578.91;4927942;29;20114;-71
2022/08/25 10:31:22;;;;;;;17.00;4.47;;;;;;;33.05;40.90;100577.69;4927374;29;20039;-70
2022/08/25 10:34:31;;;;;;;14.82;4.20;;;;;;;33.01;40.94;100576.34;4926800;29;20081;-70
2022/08/25 10:37:28;;;;;;;16.92;4.97;;;;;;;33.12;39.78;100573.28;4928348;29;20036;-69
2022/08/25 10:40:27;;;;;;;14.50;4.32;;;;;;;33.01;40.28;100571.78;4927570;29;20098;-71
2022/08/25 10:43:40;;;;;;;13.63;4.47;;;;;;;33.37;40.22;100577.63;4925867;29;20386;-69
2022/08/25 10:46:49;;;;;;;16.40;4.95;;;;;;;33.71;38.74;100561.84;4927710;29;20027;-72
2022/08/25 10:49:46;;;;;;;13.25;4.32;;;;;;;33.72;38.37;100563.53;4927642;29;20044;-70
2022/08/25 10:52:50;;;;;;;16.88;4.45;;;;;;;33.14;38.07;100554.94;4926940;29;20043;-70
2022/08/25 10:55:54;;;;;;;16.10;4.78;;;;;;;32.79;38.98;100547.19;4925136;29;20039;-71
2022/08/25 10:58:52;;;;;;;18.92;4.80;;;;;;;33.09;39.29;100547.31;4927691;29;20086;-70
2022/08/25 11:02:28;;;;;;;18.52;4.75;;;;;;;32.91;38.74;100546.66;4927518;29;20032;-71
2022/08/25 11:05:24;;;;;;;18.98;4.65;;;;;;;33.36;38.94;100543.34;4820432;29;20099;-71
2022/08/25 11:08:24;;;;;;;17.60;4.63;;;;;;;33.07;38.37;100540.38;4906613;29;20032;-71
2022/08/25 11:11:34;;;;;;;25.00;5.07;;;;;;;33.15;38.59;100540.34;4907951;29;20043;-70
2022/08/25 11:14:41;;;;;;;19.85;4.70;;;;;;;33.67;37.96;100533.34;4906557;29;20050;-71
2022/08/25 11:17:38;;;;;;;19.40;5.55;;;;;;;33.87;38.70;100524.53;4907714;29;20080;-73
2022/08/25 11:20:36;;;;;;;18.77;4.55;;;;;;;34.08;37.63;100523.91;4909812;29;20028;-73
2022/08/25 11:23:44;;;;;;;17.13;5.07;;;;;;;34.16;37.62;100524.66;4907890;29;20046;-74
2022/08/25 11:26:34;;;;;;;24.42;4.97;;;;;;;34.44;37.30;100523.09;4908490;29;20111;-73
2022/08/25 11:29:23;;;;;;;22.58;4.78;;;;;;;33.36;37.89;100524.31;4909492;29;20043;-73
2022/08/25 11:32:09;;;;;;;23.23;4.68;;;;;;;34.03;36.83;100523.59;4907041;29;20075;-72
2022/08/25 11:34:59;;;;;;;33.42;5.10;;;;;;;33.98;36.98;100518.69;4905000;29;20036;-73
2022/08/25 11:38:11;;;;;;;24.65;4.85;;;;;;;34.22;36.13;100517.66;4909631;29;20406;-72
2022/08/25 11:41:28;;;;;;;28.45;4.95;;;;;;;33.73;37.09;100506.28;4909249;29;20083;-73
2022/08/25 11:44:54;;;;;;;20.90;4.80;;;;;;;33.75;35.99;100511.53;4909179;29;20122;-75
2022/08/25 11:47:49;;;;;;;20.73;4.57;;;;;;;34.15;36.16;100508.53;4909050;29;20040;-73
2022/08/25 11:50:54;;;;;;;25.60;5.72;;;;;;;34.34;35.29;100497.16;4908602;29;20071;-72
2022/08/25 11:53:43;;;;;;;19.80;4.60;;;;;;;34.58;35.89;100500.50;4910555;29;20047;-73
2022/08/25 11:56:37;;;;;;;24.20;4.72;;;;;;;34.42;35.58;100502.53;4910987;29;20036;-74
2022/08/25 11:59:50;;;;;;;16.42;4.93;;;;;;;35.01;34.85;100490.69;4912493;29;20108;-74
2022/08/25 12:02:49;;;;;;;24.75;5.13;;;;;;;34.75;34.85;100504.75;4911137;29;20305;-74
2022/08/25 12:05:40;;;;;;;22.88;5.22;;;;;;;34.40;35.26;100502.72;4922799;29;20043;-74
2022/08/25 12:08:49;;;;;;;25.48;5.22;;;;;;;34.58;34.37;100495.06;4931577;29;20346;-74
2022/08/25 12:11:53;;;;;;;26.42;5.20;;;;;;;34.90;34.62;100483.84;4930225;29;20032;-74
2022/08/25 12:14:44;;;;;;;23.17;5.22;;;;;;;34.73;34.22;100482.31;4930177;29;20039;-73
2022/08/25 12:17:37;;;;;;;23.50;4.82;;;;;;;35.46;34.18;100487.75;4930167;29;20070;-75
2022/08/25 12:20:52;;;;;;;18.35;4.75;;;;;;;35.61;33.24;100484.97;4931144;29;20042;-74
2022/08/25 12:24:08;;;;;;;25.63;5.35;;;;;;;34.72;33.28;100485.22;4929070;29;20036;-74
2022/08/25 12:26:59;;;;;;;23.70;4.78;;;;;;;34.39;34.25;100475.72;4926015;29;20036;-73
2022/08/25 12:29:54;;;;;;;33.80;5.07;;;;;;;34.41;33.24;100489.97;4930852;29;20280;-73
2022/08/25 12:33:05;;;;;;;22.27;4.80;;;;;;;34.50;33.42;100481.53;4929983;29;20188;-73
2022/08/25 12:36:00;;;;;;;21.95;4.20;;;;;;;34.63;33.87;100479.00;4928541;29;20031;-73
2022/08/25 12:38:48;;;;;;;27.13;4.45;;;;;;;35.10;32.78;100476.78;4916902;29;20167;-72
2022/08/25 12:41:49;;;;;;;28.73;4.95;;;;;;;34.58;32.76;100472.44;4930416;29;20031;-73
2022/08/25 12:44:39;;;;;;;17.45;4.22;;;;;;;34.97;33.39;100478.50;4927473;29;20039;-74
2022/08/25 12:47:31;;;;;;;21.63;5.03;;;;;;;34.89;32.99;100470.41;4928712;29;20019;-73
2022/08/25 12:50:38;;;;;;;20.25;4.25;;;;;;;34.37;33.21;100473.19;4930160;29;20038;-73
2022/08/25 12:53:40;;;;;;;19.17;4.15;;;;;;;34.73;33.10;100476.88;4929487;29;20035;-74
2022/08/25 12:56:56;;;;;;;22.35;4.95;;;;;;;34.74;33.82;100477.69;4930128;29;20023;-75
2022/08/25 12:59:47;;;;;;;23.45;5.15;;;;;;;34.61;33.23;100472.06;4929995;29;20048;-74